sensor_id;sensor_type;location;lat;lon;timestamp;P1;durP1;ratioP1;P2;durP2;ratioP2
18138;SDS011;9195;53.176;9.486;2022-12-16T00:02:01;5.10;;;4.90;;
18138;SDS011;9195;53.176;9.486;2022-12-16T00:04:27;5.50;;;5.30;;
18138;SDS011;9195;53.176;9.486;2022-12-16T00:06:52;5.40;;;5.20;;
18138;SDS011;9195;53.176;9.486;2022-12-16T00:09:18;5.40;;;5.20;;
18138;SDS011;9195;53.176;9.486;2022-12-16T00:11:44;5.67;;;5.47;;
18138;SDS011;9195;53.176;9.486;2022-12-16T00:14:10;5.60;;;5.40;;
18138;SDS011;9195;53.176;9.486;2022-12-16T00:16:35;5.37;;;5.17;;
18138;SDS011;9195;53.176;9.486;2022-12-16T00:19:01;5.53;;;5.33;;
18138;SDS011;9195;53.176;9.486;2022-12-16T00:21:27;5.50;;;5.30;;
18138;SDS011;9195;53.176;9.486;2022-12-16T00:23:53;5.23;;;5.03;;
18138;SDS011;9195;53.176;9.486;2022-12-16T00:26:20;5.33;;;5.13;;
18138;SDS011;9195;53.176;9.486;2022-12-16T00:28:46;5.70;;;5.50;;
18138;SDS011;9195;53.176;9.486;2022-12-16T00:31:12;5.67;;;5.47;;
18138;SDS011;9195;53.176;9.486;2022-12-16T00:33:38;5.50;;;5.30;;
18138;SDS011;9195;53.176;9.486;2022-12-16T00:36:04;5.60;;;5.40;;
18138;SDS011;9195;53.176;9.486;2022-12-16T00:38:31;5.60;;;5.40;;
18138;SDS011;9195;53.176;9.486;2022-12-16T00:40:56;5.67;;;5.47;;
18138;SDS011;9195;53.176;9.486;2022-12-16T00:43:22;5.40;;;5.20;;
18138;SDS011;9195;53.176;9.486;2022-12-16T00:45:47;5.70;;;5.50;;
18138;SDS011;9195;53.176;9.486;2022-12-16T00:48:13;5.50;;;5.30;;
18138;SDS011;9195;53.176;9.486;2022-12-16T00:50:39;5.60;;;5.40;;
18138;SDS011;9195;53.176;9.486;2022-12-16T00:53:05;5.80;;;5.60;;
18138;SDS011;9195;53.176;9.486;2022-12-16T00:55:31;5.60;;;5.40;;
18138;SDS011;9195;53.176;9.486;2022-12-16T00:57:57;5.60;;;5.40;;
18138;SDS011;9195;53.176;9.486;2022-12-16T01:00:22;5.50;;;5.30;;
18138;SDS011;9195;53.176;9.486;2022-12-16T01:02:48;5.40;;;5.20;;
18138;SDS011;9195;53.176;9.486;2022-12-16T01:05:17;5.53;;;5.33;;
18138;SDS011;9195;53.176;9.486;2022-12-16T01:07:45;5.53;;;5.33;;
18138;SDS011;9195;53.176;9.486;2022-12-16T01:10:11;5.60;;;5.40;;
18138;SDS011;9195;53.176;9.486;2022-12-16T01:12:37;5.80;;;5.60;;
18138;SDS011;9195;53.176;9.486;2022-12-16T01:15:03;5.63;;;5.43;;
18138;SDS011;9195;53.176;9.486;2022-12-16T01:17:31;5.57;;;5.37;;
18138;SDS011;9195;53.176;9.486;2022-12-16T01:19:57;5.87;;;5.67;;
18138;SDS011;9195;53.176;9.486;2022-12-16T01:22:22;5.93;;;5.73;;
18138;SDS011;9195;53.176;9.486;2022-12-16T01:24:48;6.10;;;5.90;;
18138;SDS011;9195;53.176;9.486;2022-12-16T01:27:14;5.77;;;5.57;;
18138;SDS011;9195;53.176;9.486;2022-12-16T01:29:40;5.43;;;5.23;;
18138;SDS011;9195;53.176;9.486;2022-12-16T01:32:08;5.53;;;5.33;;
18138;SDS011;9195;53.176;9.486;2022-12-16T01:34:36;5.73;;;5.53;;
18138;SDS011;9195;53.176;9.486;2022-12-16T01:37:02;6.00;;;5.80;;
18138;SDS011;9195;53.176;9.486;2022-12-16T01:39:27;5.80;;;5.60;;
18138;SDS011;9195;53.176;9.486;2022-12-16T01:41:54;6.00;;;5.80;;
18138;SDS011;9195;53.176;9.486;2022-12-16T01:44:21;6.00;;;5.80;;
18138;SDS011;9195;53.176;9.486;2022-12-16T01:46:49;5.67;;;5.47;;
18138;SDS011;9195;53.176;9.486;2022-12-16T01:49:33;6.00;;;5.80;;
18138;SDS011;9195;53.176;9.486;2022-12-16T01:52:04;6.10;;;5.90;;
18138;SDS011;9195;53.176;9.486;2022-12-16T01:54:35;6.40;;;6.20;;
18138;SDS011;9195;53.176;9.486;2022-12-16T01:57:06;6.07;;;5.87;;
18138;SDS011;9195;53.176;9.486;2022-12-16T01:59:36;6.00;;;5.80;;
18138;SDS011;9195;53.176;9.486;2022-12-16T02:02:05;6.30;;;6.10;;
18138;SDS011;9195;53.176;9.486;2022-12-16T02:04:31;6.20;;;6.00;;
18138;SDS011;9195;53.176;9.486;2022-12-16T02:06:57;5.93;;;5.73;;
18138;SDS011;9195;53.176;9.486;2022-12-16T02:09:24;6.30;;;6.10;;
18138;SDS011;9195;53.176;9.486;2022-12-16T02:12:06;6.30;;;6.10;;
18138;SDS011;9195;53.176;9.486;2022-12-16T02:21:04;6.00;;;5.80;;
18138;SDS011;9195;53.176;9.486;2022-12-16T02:29:35;6.00;;;5.80;;
18138;SDS011;9195;53.176;9.486;2022-12-16T02:32:26;6.10;;;5.90;;
18138;SDS011;9195;53.176;9.486;2022-12-16T02:40:15;5.83;;;5.63;;
18138;SDS011;9195;53.176;9.486;2022-12-16T02:42:59;6.40;;;6.20;;
18138;SDS011;9195;53.176;9.486;2022-12-16T02:45:38;6.80;;;6.50;;
18138;SDS011;9195;53.176;9.486;2022-12-16T02:48:05;6.10;;;5.90;;
18138;SDS011;9195;53.176;9.486;2022-12-16T02:50:34;6.20;;;6.00;;
18138;SDS011;9195;53.176;9.486;2022-12-16T02:53:03;6.70;;;6.40;;
18138;SDS011;9195;53.176;9.486;2022-12-16T02:55:34;6.40;;;6.20;;
18138;SDS011;9195;53.176;9.486;2022-12-16T03:00:41;6.67;;;6.37;;
18138;SDS011;9195;53.176;9.486;2022-12-16T03:06:22;6.70;;;6.40;;
18138;SDS011;9195;53.176;9.486;2022-12-16T03:08:51;6.70;;;6.40;;
18138;SDS011;9195;53.176;9.486;2022-12-16T03:11:21;6.80;;;6.50;;
18138;SDS011;9195;53.176;9.486;2022-12-16T03:13:50;6.50;;;6.30;;
18138;SDS011;9195;53.176;9.486;2022-12-16T03:16:19;6.73;;;6.43;;
18138;SDS011;9195;53.176;9.486;2022-12-16T03:18:48;6.47;;;6.27;;
18138;SDS011;9195;53.176;9.486;2022-12-16T03:21:19;6.93;;;6.63;;
18138;SDS011;9195;53.176;9.486;2022-12-16T03:23:50;6.60;;;6.33;;
18138;SDS011;9195;53.176;9.486;2022-12-16T03:26:22;6.90;;;6.60;;
18138;SDS011;9195;53.176;9.486;2022-12-16T03:29:03;6.97;;;6.67;;
18138;SDS011;9195;53.176;9.486;2022-12-16T03:31:40;6.80;;;6.50;;
18138;SDS011;9195;53.176;9.486;2022-12-16T03:37:02;6.77;;;6.47;;
18138;SDS011;9195;53.176;9.486;2022-12-16T03:39:32;6.33;;;6.13;;
18138;SDS011;9195;53.176;9.486;2022-12-16T03:42:02;6.30;;;6.10;;
18138;SDS011;9195;53.176;9.486;2022-12-16T03:44:28;6.37;;;6.17;;
18138;SDS011;9195;53.176;9.486;2022-12-16T03:46:54;6.80;;;6.50;;
18138;SDS011;9195;53.176;9.486;2022-12-16T03:49:20;6.33;;;6.13;;
18138;SDS011;9195;53.176;9.486;2022-12-16T03:51:47;6.67;;;6.37;;
18138;SDS011;9195;53.176;9.486;2022-12-16T03:54:12;6.40;;;6.20;;
18138;SDS011;9195;53.176;9.486;2022-12-16T03:56:38;6.83;;;6.53;;
18138;SDS011;9195;53.176;9.486;2022-12-16T03:59:03;6.60;;;6.30;;
18138;SDS011;9195;53.176;9.486;2022-12-16T04:01:29;6.80;;;6.50;;
18138;SDS011;9195;53.176;9.486;2022-12-16T04:03:55;6.63;;;6.37;;
18138;SDS011;9195;53.176;9.486;2022-12-16T04:06:20;7.17;;;6.87;;
18138;SDS011;9195;53.176;9.486;2022-12-16T04:08:46;7.10;;;6.80;;
18138;SDS011;9195;53.176;9.486;2022-12-16T04:11:12;6.90;;;6.60;;
18138;SDS011;9195;53.176;9.486;2022-12-16T04:13:57;7.20;;;6.90;;
18138;SDS011;9195;53.176;9.486;2022-12-16T04:16:42;6.97;;;6.67;;
18138;SDS011;9195;53.176;9.486;2022-12-16T04:19:27;6.90;;;6.60;;
18138;SDS011;9195;53.176;9.486;2022-12-16T04:22:31;6.70;;;6.40;;
18138;SDS011;9195;53.176;9.486;2022-12-16T04:25:20;6.87;;;6.57;;
18138;SDS011;9195;53.176;9.486;2022-12-16T04:27:52;7.33;;;7.03;;
18138;SDS011;9195;53.176;9.486;2022-12-16T04:30:18;7.10;;;6.80;;
18138;SDS011;9195;53.176;9.486;2022-12-16T04:32:49;7.73;;;7.43;;
18138;SDS011;9195;53.176;9.486;2022-12-16T04:35:37;6.87;;;6.57;;
18138;SDS011;9195;53.176;9.486;2022-12-16T04:38:22;6.90;;;6.60;;
18138;SDS011;9195;53.176;9.486;2022-12-16T04:41:06;6.67;;;6.37;;
18138;SDS011;9195;53.176;9.486;2022-12-16T04:43:50;6.70;;;6.40;;
18138;SDS011;9195;53.176;9.486;2022-12-16T04:46:34;6.73;;;6.43;;
18138;SDS011;9195;53.176;9.486;2022-12-16T04:49:18;6.83;;;6.53;;
18138;SDS011;9195;53.176;9.486;2022-12-16T04:52:02;6.90;;;6.60;;
18138;SDS011;9195;53.176;9.486;2022-12-16T04:54:47;6.57;;;6.30;;
18138;SDS011;9195;53.176;9.486;2022-12-16T04:57:31;6.90;;;6.60;;
18138;SDS011;9195;53.176;9.486;2022-12-16T05:00:15;6.70;;;6.40;;
18138;SDS011;9195;53.176;9.486;2022-12-16T05:02:59;6.70;;;6.40;;
18138;SDS011;9195;53.176;9.486;2022-12-16T05:05:54;6.53;;;6.30;;
18138;SDS011;9195;53.176;9.486;2022-12-16T05:08:38;6.17;;;5.97;;
18138;SDS011;9195;53.176;9.486;2022-12-16T05:11:23;6.90;;;6.60;;
18138;SDS011;9195;53.176;9.486;2022-12-16T05:14:07;6.13;;;5.93;;
18138;SDS011;9195;53.176;9.486;2022-12-16T05:16:51;6.17;;;5.97;;
18138;SDS011;9195;53.176;9.486;2022-12-16T05:19:35;6.00;;;5.80;;
18138;SDS011;9195;53.176;9.486;2022-12-16T05:22:19;6.30;;;6.10;;
18138;SDS011;9195;53.176;9.486;2022-12-16T05:25:03;6.30;;;6.10;;
18138;SDS011;9195;53.176;9.486;2022-12-16T05:27:52;6.10;;;5.90;;
18138;SDS011;9195;53.176;9.486;2022-12-16T05:30:37;5.70;;;5.50;;
18138;SDS011;9195;53.176;9.486;2022-12-16T05:33:22;5.93;;;5.73;;
18138;SDS011;9195;53.176;9.486;2022-12-16T05:36:07;6.40;;;6.20;;
18138;SDS011;9195;53.176;9.486;2022-12-16T05:38:51;6.13;;;5.93;;
18138;SDS011;9195;53.176;9.486;2022-12-16T05:41:35;6.00;;;5.80;;
18138;SDS011;9195;53.176;9.486;2022-12-16T05:44:20;6.37;;;6.17;;
18138;SDS011;9195;53.176;9.486;2022-12-16T05:47:04;6.10;;;5.90;;
18138;SDS011;9195;53.176;9.486;2022-12-16T05:49:48;6.50;;;6.30;;
18138;SDS011;9195;53.176;9.486;2022-12-16T05:52:33;6.40;;;6.20;;
18138;SDS011;9195;53.176;9.486;2022-12-16T05:55:17;5.90;;;5.70;;
18138;SDS011;9195;53.176;9.486;2022-12-16T05:58:01;6.40;;;6.20;;
18138;SDS011;9195;53.176;9.486;2022-12-16T06:00:45;5.90;;;5.70;;
18138;SDS011;9195;53.176;9.486;2022-12-16T06:03:29;6.03;;;5.83;;
18138;SDS011;9195;53.176;9.486;2022-12-16T06:06:13;5.63;;;5.43;;
18138;SDS011;9195;53.176;9.486;2022-12-16T06:08:57;5.93;;;5.73;;
18138;SDS011;9195;53.176;9.486;2022-12-16T06:11:41;6.20;;;6.00;;
18138;SDS011;9195;53.176;9.486;2022-12-16T06:14:25;6.40;;;6.20;;
18138;SDS011;9195;53.176;9.486;2022-12-16T06:17:09;6.13;;;5.93;;
18138;SDS011;9195;53.176;9.486;2022-12-16T06:19:54;5.97;;;5.77;;
18138;SDS011;9195;53.176;9.486;2022-12-16T06:22:38;6.00;;;5.80;;
18138;SDS011;9195;53.176;9.486;2022-12-16T06:25:22;6.13;;;5.93;;
18138;SDS011;9195;53.176;9.486;2022-12-16T06:28:06;6.30;;;6.10;;
18138;SDS011;9195;53.176;9.486;2022-12-16T06:30:50;6.63;;;6.33;;
18138;SDS011;9195;53.176;9.486;2022-12-16T06:33:34;6.30;;;6.10;;
18138;SDS011;9195;53.176;9.486;2022-12-16T06:36:18;6.50;;;6.30;;
18138;SDS011;9195;53.176;9.486;2022-12-16T06:39:03;6.60;;;6.30;;
18138;SDS011;9195;53.176;9.486;2022-12-16T06:41:47;6.60;;;6.30;;
18138;SDS011;9195;53.176;9.486;2022-12-16T06:44:31;6.10;;;5.90;;
18138;SDS011;9195;53.176;9.486;2022-12-16T06:47:15;6.30;;;6.10;;
18138;SDS011;9195;53.176;9.486;2022-12-16T06:49:59;6.30;;;6.10;;
18138;SDS011;9195;53.176;9.486;2022-12-16T06:52:43;6.57;;;6.30;;
18138;SDS011;9195;53.176;9.486;2022-12-16T06:55:28;6.20;;;6.00;;
18138;SDS011;9195;53.176;9.486;2022-12-16T06:58:12;6.40;;;6.20;;
18138;SDS011;9195;53.176;9.486;2022-12-16T07:00:56;6.67;;;6.37;;
18138;SDS011;9195;53.176;9.486;2022-12-16T07:03:40;6.30;;;6.10;;
18138;SDS011;9195;53.176;9.486;2022-12-16T07:06:24;6.47;;;6.27;;
18138;SDS011;9195;53.176;9.486;2022-12-16T07:09:08;6.33;;;6.13;;
18138;SDS011;9195;53.176;9.486;2022-12-16T07:11:52;6.30;;;6.10;;
18138;SDS011;9195;53.176;9.486;2022-12-16T07:14:37;6.23;;;6.03;;
18138;SDS011;9195;53.176;9.486;2022-12-16T07:17:21;6.07;;;5.87;;
18138;SDS011;9195;53.176;9.486;2022-12-16T07:20:05;6.90;;;6.60;;
18138;SDS011;9195;53.176;9.486;2022-12-16T07:22:50;6.70;;;6.40;;
18138;SDS011;9195;53.176;9.486;2022-12-16T07:25:34;6.83;;;6.53;;
18138;SDS011;9195;53.176;9.486;2022-12-16T07:28:18;6.80;;;6.50;;
18138;SDS011;9195;53.176;9.486;2022-12-16T07:31:03;6.77;;;6.47;;
18138;SDS011;9195;53.176;9.486;2022-12-16T07:33:47;7.10;;;6.80;;
18138;SDS011;9195;53.176;9.486;2022-12-16T07:36:31;6.90;;;6.60;;
18138;SDS011;9195;53.176;9.486;2022-12-16T07:39:15;6.77;;;6.47;;
18138;SDS011;9195;53.176;9.486;2022-12-16T07:41:59;6.80;;;6.50;;
18138;SDS011;9195;53.176;9.486;2022-12-16T07:44:43;7.37;;;7.07;;
18138;SDS011;9195;53.176;9.486;2022-12-16T07:47:28;6.87;;;6.57;;
18138;SDS011;9195;53.176;9.486;2022-12-16T07:50:12;6.90;;;6.60;;
18138;SDS011;9195;53.176;9.486;2022-12-16T07:52:56;6.67;;;6.37;;
18138;SDS011;9195;53.176;9.486;2022-12-16T07:55:41;6.63;;;6.33;;
18138;SDS011;9195;53.176;9.486;2022-12-16T07:58:25;6.47;;;6.27;;
18138;SDS011;9195;53.176;9.486;2022-12-16T08:01:10;5.90;;;5.70;;
18138;SDS011;9195;53.176;9.486;2022-12-16T08:03:54;6.10;;;5.90;;
18138;SDS011;9195;53.176;9.486;2022-12-16T08:06:38;6.30;;;6.10;;
18138;SDS011;9195;53.176;9.486;2022-12-16T08:09:22;5.90;;;5.70;;
18138;SDS011;9195;53.176;9.486;2022-12-16T08:12:07;5.67;;;5.47;;
18138;SDS011;9195;53.176;9.486;2022-12-16T08:14:51;6.10;;;5.90;;
18138;SDS011;9195;53.176;9.486;2022-12-16T08:17:35;6.63;;;6.37;;
18138;SDS011;9195;53.176;9.486;2022-12-16T08:20:19;6.63;;;6.33;;
18138;SDS011;9195;53.176;9.486;2022-12-16T08:23:03;7.40;;;7.10;;
18138;SDS011;9195;53.176;9.486;2022-12-16T08:25:47;7.20;;;6.90;;
18138;SDS011;9195;53.176;9.486;2022-12-16T08:28:32;6.57;;;6.30;;
18138;SDS011;9195;53.176;9.486;2022-12-16T08:31:16;7.00;;;6.70;;
18138;SDS011;9195;53.176;9.486;2022-12-16T08:34:00;6.97;;;6.67;;
18138;SDS011;9195;53.176;9.486;2022-12-16T08:36:44;7.10;;;6.80;;
18138;SDS011;9195;53.176;9.486;2022-12-16T08:39:28;7.37;;;7.07;;
18138;SDS011;9195;53.176;9.486;2022-12-16T08:42:12;6.93;;;6.63;;
18138;SDS011;9195;53.176;9.486;2022-12-16T08:44:56;7.60;;;7.30;;
18138;SDS011;9195;53.176;9.486;2022-12-16T08:47:40;7.30;;;7.00;;
18138;SDS011;9195;53.176;9.486;2022-12-16T08:50:24;7.50;;;7.20;;
18138;SDS011;9195;53.176;9.486;2022-12-16T08:53:08;8.33;;;8.03;;
18138;SDS011;9195;53.176;9.486;2022-12-16T08:55:52;8.13;;;7.83;;
18138;SDS011;9195;53.176;9.486;2022-12-16T08:58:36;8.00;;;7.70;;
18138;SDS011;9195;53.176;9.486;2022-12-16T09:01:21;8.10;;;7.80;;
18138;SDS011;9195;53.176;9.486;2022-12-16T09:04:05;7.93;;;7.63;;
18138;SDS011;9195;53.176;9.486;2022-12-16T09:06:49;8.27;;;7.97;;
18138;SDS011;9195;53.176;9.486;2022-12-16T09:09:33;8.77;;;8.43;;
18138;SDS011;9195;53.176;9.486;2022-12-16T09:12:17;8.60;;;8.30;;
18138;SDS011;9195;53.176;9.486;2022-12-16T09:15:01;8.77;;;8.37;;
18138;SDS011;9195;53.176;9.486;2022-12-16T09:17:45;8.93;;;8.53;;
18138;SDS011;9195;53.176;9.486;2022-12-16T09:20:36;9.20;;;8.80;;
18138;SDS011;9195;53.176;9.486;2022-12-16T09:23:20;9.20;;;8.80;;
18138;SDS011;9195;53.176;9.486;2022-12-16T09:26:05;9.03;;;8.63;;
18138;SDS011;9195;53.176;9.486;2022-12-16T09:28:49;9.10;;;8.70;;
18138;SDS011;9195;53.176;9.486;2022-12-16T09:31:33;8.97;;;8.57;;
18138;SDS011;9195;53.176;9.486;2022-12-16T09:34:17;9.40;;;9.00;;
18138;SDS011;9195;53.176;9.486;2022-12-16T09:37:01;9.40;;;9.00;;
18138;SDS011;9195;53.176;9.486;2022-12-16T09:39:45;9.00;;;8.60;;
18138;SDS011;9195;53.176;9.486;2022-12-16T09:42:33;9.70;;;9.30;;
18138;SDS011;9195;53.176;9.486;2022-12-16T09:51:31;9.53;;;9.13;;
18138;SDS011;9195;53.176;9.486;2022-12-16T09:54:18;9.17;;;8.77;;
18138;SDS011;9195;53.176;9.486;2022-12-16T09:57:03;9.93;;;9.53;;
18138;SDS011;9195;53.176;9.486;2022-12-16T09:59:52;9.50;;;9.10;;
18138;SDS011;9195;53.176;9.486;2022-12-16T10:02:40;9.77;;;9.37;;
18138;SDS011;9195;53.176;9.486;2022-12-16T10:05:29;9.33;;;8.93;;
18138;SDS011;9195;53.176;9.486;2022-12-16T10:08:36;9.27;;;8.87;;
18138;SDS011;9195;53.176;9.486;2022-12-16T10:11:49;9.70;;;9.30;;
18138;SDS011;9195;53.176;9.486;2022-12-16T10:14:50;9.60;;;9.20;;
18138;SDS011;9195;53.176;9.486;2022-12-16T10:17:45;9.80;;;9.40;;
18138;SDS011;9195;53.176;9.486;2022-12-16T10:20:43;9.53;;;9.13;;
18138;SDS011;9195;53.176;9.486;2022-12-16T10:23:34;9.60;;;9.20;;
18138;SDS011;9195;53.176;9.486;2022-12-16T10:26:29;9.67;;;9.27;;
18138;SDS011;9195;53.176;9.486;2022-12-16T10:29:24;8.83;;;8.43;;
18138;SDS011;9195;53.176;9.486;2022-12-16T10:32:18;9.67;;;9.27;;
18138;SDS011;9195;53.176;9.486;2022-12-16T10:35:04;9.63;;;9.23;;
18138;SDS011;9195;53.176;9.486;2022-12-16T10:38:05;9.60;;;9.20;;
18138;SDS011;9195;53.176;9.486;2022-12-16T10:41:11;9.30;;;8.90;;
18138;SDS011;9195;53.176;9.486;2022-12-16T10:43:56;9.57;;;9.17;;
18138;SDS011;9195;53.176;9.486;2022-12-16T10:46:41;9.50;;;9.10;;
18138;SDS011;9195;53.176;9.486;2022-12-16T10:49:26;9.80;;;9.40;;
18138;SDS011;9195;53.176;9.486;2022-12-16T10:52:11;9.87;;;9.47;;
18138;SDS011;9195;53.176;9.486;2022-12-16T10:55:07;10.40;;;10.00;;
18138;SDS011;9195;53.176;9.486;2022-12-16T11:01:00;9.70;;;9.30;;
18138;SDS011;9195;53.176;9.486;2022-12-16T11:03:44;9.00;;;8.60;;
18138;SDS011;9195;53.176;9.486;2022-12-16T11:06:38;9.20;;;8.80;;
18138;SDS011;9195;53.176;9.486;2022-12-16T11:09:28;9.57;;;9.17;;
18138;SDS011;9195;53.176;9.486;2022-12-16T11:15:20;8.60;;;8.30;;
18138;SDS011;9195;53.176;9.486;2022-12-16T11:21:04;8.50;;;8.20;;
18138;SDS011;9195;53.176;9.486;2022-12-16T11:24:05;8.13;;;7.83;;
18138;SDS011;9195;53.176;9.486;2022-12-16T11:26:54;8.73;;;8.40;;
18138;SDS011;9195;53.176;9.486;2022-12-16T11:29:57;8.30;;;8.00;;
18138;SDS011;9195;53.176;9.486;2022-12-16T11:32:51;8.83;;;8.43;;
18138;SDS011;9195;53.176;9.486;2022-12-16T11:35:42;8.47;;;8.17;;
18138;SDS011;9195;53.176;9.486;2022-12-16T11:38:44;8.27;;;7.97;;
18138;SDS011;9195;53.176;9.486;2022-12-16T11:41:35;9.20;;;8.80;;
18138;SDS011;9195;53.176;9.486;2022-12-16T11:44:27;8.60;;;8.30;;
18138;SDS011;9195;53.176;9.486;2022-12-16T11:47:38;8.90;;;8.50;;
18138;SDS011;9195;53.176;9.486;2022-12-16T11:50:30;8.10;;;7.80;;
18138;SDS011;9195;53.176;9.486;2022-12-16T11:56:25;8.20;;;7.90;;
18138;SDS011;9195;53.176;9.486;2022-12-16T11:59:26;8.60;;;8.30;;
18138;SDS011;9195;53.176;9.486;2022-12-16T12:02:40;8.37;;;8.07;;
18138;SDS011;9195;53.176;9.486;2022-12-16T12:08:50;8.60;;;8.30;;
18138;SDS011;9195;53.176;9.486;2022-12-16T12:11:56;9.03;;;8.63;;
18138;SDS011;9195;53.176;9.486;2022-12-16T12:15:15;8.87;;;8.47;;
18138;SDS011;9195;53.176;9.486;2022-12-16T12:21:26;9.13;;;8.73;;
18138;SDS011;9195;53.176;9.486;2022-12-16T12:24:36;9.30;;;8.90;;
18138;SDS011;9195;53.176;9.486;2022-12-16T12:27:38;9.10;;;8.70;;
18138;SDS011;9195;53.176;9.486;2022-12-16T12:31:02;9.63;;;9.23;;
18138;SDS011;9195;53.176;9.486;2022-12-16T12:33:58;9.90;;;9.50;;
18138;SDS011;9195;53.176;9.486;2022-12-16T12:39:45;10.90;;;10.47;;
18138;SDS011;9195;53.176;9.486;2022-12-16T12:42:44;11.20;;;10.70;;
18138;SDS011;9195;53.176;9.486;2022-12-16T12:49:04;11.30;;;10.80;;
18138;SDS011;9195;53.176;9.486;2022-12-16T12:55:43;11.50;;;11.00;;
18138;SDS011;9195;53.176;9.486;2022-12-16T12:58:37;11.40;;;10.90;;
18138;SDS011;9195;53.176;9.486;2022-12-16T13:01:24;11.83;;;11.33;;
18138;SDS011;9195;53.176;9.486;2022-12-16T13:04:13;11.67;;;11.17;;
18138;SDS011;9195;53.176;9.486;2022-12-16T13:07:01;11.43;;;10.93;;
18138;SDS011;9195;53.176;9.486;2022-12-16T13:10:09;11.50;;;11.00;;
18138;SDS011;9195;53.176;9.486;2022-12-16T13:16:00;11.80;;;11.30;;
18138;SDS011;9195;53.176;9.486;2022-12-16T13:18:45;11.73;;;11.23;;
18138;SDS011;9195;53.176;9.486;2022-12-16T13:24:28;11.50;;;11.00;;
18138;SDS011;9195;53.176;9.486;2022-12-16T13:27:21;11.50;;;11.00;;
18138;SDS011;9195;53.176;9.486;2022-12-16T13:32:57;11.83;;;11.33;;
18138;SDS011;9195;53.176;9.486;2022-12-16T13:35:55;11.80;;;11.30;;
18138;SDS011;9195;53.176;9.486;2022-12-16T13:38:45;11.77;;;11.27;;
18138;SDS011;9195;53.176;9.486;2022-12-16T13:53:25;11.37;;;10.87;;
18138;SDS011;9195;53.176;9.486;2022-12-16T13:56:19;11.93;;;11.43;;
18138;SDS011;9195;53.176;9.486;2022-12-16T13:59:20;11.57;;;11.07;;
18138;SDS011;9195;53.176;9.486;2022-12-16T14:05:33;11.30;;;10.80;;
18138;SDS011;9195;53.176;9.486;2022-12-16T14:08:21;11.37;;;10.87;;
18138;SDS011;9195;53.176;9.486;2022-12-16T14:11:13;11.30;;;10.80;;
18138;SDS011;9195;53.176;9.486;2022-12-16T14:14:32;10.50;;;10.10;;
18138;SDS011;9195;53.176;9.486;2022-12-16T14:17:35;10.40;;;10.00;;
18138;SDS011;9195;53.176;9.486;2022-12-16T14:20:38;10.23;;;9.83;;
18138;SDS011;9195;53.176;9.486;2022-12-16T14:23:47;10.20;;;9.80;;
18138;SDS011;9195;53.176;9.486;2022-12-16T14:26:35;9.97;;;9.57;;
18138;SDS011;9195;53.176;9.486;2022-12-16T14:29:25;9.83;;;9.43;;
18138;SDS011;9195;53.176;9.486;2022-12-16T14:32:18;8.43;;;8.13;;
18138;SDS011;9195;53.176;9.486;2022-12-16T14:35:18;8.27;;;7.97;;
18138;SDS011;9195;53.176;9.486;2022-12-16T14:41:13;8.90;;;8.50;;
18138;SDS011;9195;53.176;9.486;2022-12-16T14:44:01;9.17;;;8.77;;
18138;SDS011;9195;53.176;9.486;2022-12-16T14:46:48;9.27;;;8.87;;
18138;SDS011;9195;53.176;9.486;2022-12-16T14:49:33;9.50;;;9.10;;
18138;SDS011;9195;53.176;9.486;2022-12-16T14:52:21;8.80;;;8.40;;
18138;SDS011;9195;53.176;9.486;2022-12-16T15:00:55;8.40;;;8.10;;
18138;SDS011;9195;53.176;9.486;2022-12-16T15:03:44;8.10;;;7.80;;
18138;SDS011;9195;53.176;9.486;2022-12-16T15:09:29;7.80;;;7.50;;
18138;SDS011;9195;53.176;9.486;2022-12-16T15:12:18;8.40;;;8.10;;
18138;SDS011;9195;53.176;9.486;2022-12-16T15:15:07;8.07;;;7.77;;
18138;SDS011;9195;53.176;9.486;2022-12-16T15:18:15;7.93;;;7.63;;
18138;SDS011;9195;53.176;9.486;2022-12-16T15:21:02;7.97;;;7.67;;
18138;SDS011;9195;53.176;9.486;2022-12-16T15:23:50;8.10;;;7.80;;
18138;SDS011;9195;53.176;9.486;2022-12-16T15:26:35;7.73;;;7.43;;
18138;SDS011;9195;53.176;9.486;2022-12-16T15:35:10;7.50;;;7.20;;
18138;SDS011;9195;53.176;9.486;2022-12-16T15:40:57;7.60;;;7.30;;
18138;SDS011;9195;53.176;9.486;2022-12-16T15:43:43;7.47;;;7.17;;
18138;SDS011;9195;53.176;9.486;2022-12-16T15:46:29;7.50;;;7.20;;
18138;SDS011;9195;53.176;9.486;2022-12-16T15:49:21;7.03;;;6.73;;
18138;SDS011;9195;53.176;9.486;2022-12-16T15:55:38;6.33;;;6.13;;
18138;SDS011;9195;53.176;9.486;2022-12-16T15:58:31;6.83;;;6.53;;
18138;SDS011;9195;53.176;9.486;2022-12-16T16:01:24;6.33;;;6.13;;
18138;SDS011;9195;53.176;9.486;2022-12-16T16:04:28;6.03;;;5.83;;
18138;SDS011;9195;53.176;9.486;2022-12-16T16:07:20;6.80;;;6.50;;
18138;SDS011;9195;53.176;9.486;2022-12-16T16:13:08;6.13;;;5.93;;
18138;SDS011;9195;53.176;9.486;2022-12-16T16:15:52;6.30;;;6.10;;
18138;SDS011;9195;53.176;9.486;2022-12-16T16:18:37;5.90;;;5.70;;
18138;SDS011;9195;53.176;9.486;2022-12-16T16:21:22;5.70;;;5.50;;
18138;SDS011;9195;53.176;9.486;2022-12-16T16:24:06;5.47;;;5.27;;
18138;SDS011;9195;53.176;9.486;2022-12-16T16:26:51;5.90;;;5.70;;
18138;SDS011;9195;53.176;9.486;2022-12-16T16:29:36;5.60;;;5.40;;
18138;SDS011;9195;53.176;9.486;2022-12-16T16:32:20;5.60;;;5.40;;
18138;SDS011;9195;53.176;9.486;2022-12-16T16:35:04;5.40;;;5.20;;
18138;SDS011;9195;53.176;9.486;2022-12-16T16:37:49;5.30;;;5.10;;
18138;SDS011;9195;53.176;9.486;2022-12-16T16:40:49;5.53;;;5.33;;
18138;SDS011;9195;53.176;9.486;2022-12-16T16:43:34;5.53;;;5.33;;
18138;SDS011;9195;53.176;9.486;2022-12-16T16:49:02;5.33;;;5.13;;
18138;SDS011;9195;53.176;9.486;2022-12-16T16:51:47;5.80;;;5.60;;
18138;SDS011;9195;53.176;9.486;2022-12-16T16:54:31;5.40;;;5.20;;
18138;SDS011;9195;53.176;9.486;2022-12-16T16:57:15;5.30;;;5.10;;
18138;SDS011;9195;53.176;9.486;2022-12-16T16:59:59;5.43;;;5.23;;
18138;SDS011;9195;53.176;9.486;2022-12-16T17:02:43;5.47;;;5.27;;
18138;SDS011;9195;53.176;9.486;2022-12-16T17:05:27;5.30;;;5.10;;
18138;SDS011;9195;53.176;9.486;2022-12-16T17:08:11;5.50;;;5.30;;
18138;SDS011;9195;53.176;9.486;2022-12-16T17:10:55;5.53;;;5.33;;
18138;SDS011;9195;53.176;9.486;2022-12-16T17:13:39;5.20;;;5.00;;
18138;SDS011;9195;53.176;9.486;2022-12-16T17:16:23;5.03;;;4.83;;
18138;SDS011;9195;53.176;9.486;2022-12-16T17:19:07;5.57;;;5.37;;
18138;SDS011;9195;53.176;9.486;2022-12-16T17:21:51;5.40;;;5.20;;
18138;SDS011;9195;53.176;9.486;2022-12-16T17:24:35;5.37;;;5.17;;
18138;SDS011;9195;53.176;9.486;2022-12-16T17:27:21;5.20;;;5.00;;
18138;SDS011;9195;53.176;9.486;2022-12-16T17:30:12;5.50;;;5.30;;
18138;SDS011;9195;53.176;9.486;2022-12-16T17:33:01;5.20;;;5.00;;
18138;SDS011;9195;53.176;9.486;2022-12-16T17:35:49;5.30;;;5.10;;
18138;SDS011;9195;53.176;9.486;2022-12-16T17:38:37;5.07;;;4.87;;
18138;SDS011;9195;53.176;9.486;2022-12-16T17:41:23;5.40;;;5.20;;
18138;SDS011;9195;53.176;9.486;2022-12-16T17:44:09;5.17;;;4.97;;
18138;SDS011;9195;53.176;9.486;2022-12-16T17:46:53;5.20;;;5.00;;
18138;SDS011;9195;53.176;9.486;2022-12-16T17:49:37;5.60;;;5.40;;
18138;SDS011;9195;53.176;9.486;2022-12-16T17:52:21;5.60;;;5.40;;
18138;SDS011;9195;53.176;9.486;2022-12-16T17:55:05;5.40;;;5.20;;
18138;SDS011;9195;53.176;9.486;2022-12-16T17:57:49;5.20;;;5.00;;
18138;SDS011;9195;53.176;9.486;2022-12-16T18:00:34;5.50;;;5.30;;
18138;SDS011;9195;53.176;9.486;2022-12-16T18:03:18;5.50;;;5.30;;
18138;SDS011;9195;53.176;9.486;2022-12-16T18:06:02;5.43;;;5.23;;
18138;SDS011;9195;53.176;9.486;2022-12-16T18:08:47;5.57;;;5.37;;
18138;SDS011;9195;53.176;9.486;2022-12-16T18:11:30;5.30;;;5.10;;
18138;SDS011;9195;53.176;9.486;2022-12-16T18:14:15;5.90;;;5.70;;
18138;SDS011;9195;53.176;9.486;2022-12-16T18:16:59;5.50;;;5.30;;
18138;SDS011;9195;53.176;9.486;2022-12-16T18:19:43;5.20;;;5.00;;
18138;SDS011;9195;53.176;9.486;2022-12-16T18:22:27;5.17;;;4.97;;
18138;SDS011;9195;53.176;9.486;2022-12-16T18:25:11;5.00;;;4.80;;
18138;SDS011;9195;53.176;9.486;2022-12-16T18:27:55;4.60;;;4.40;;
18138;SDS011;9195;53.176;9.486;2022-12-16T18:30:50;4.80;;;4.60;;
18138;SDS011;9195;53.176;9.486;2022-12-16T18:33:34;4.87;;;4.67;;